createdAt,value
2017-06-29T00:00:37.776Z,17.70
2017-06-29T00:03:06.309Z,17.70
2017-06-29T00:05:34.932Z,17.60
2017-06-29T00:08:03.434Z,17.60
2017-06-29T00:10:32.188Z,17.40
2017-06-29T00:13:00.683Z,17.40
2017-06-29T00:15:29.173Z,17.40
2017-06-29T00:17:57.678Z,17.40
2017-06-29T00:20:26.165Z,17.30
2017-06-29T00:22:54.695Z,17.20
2017-06-29T00:25:23.157Z,17.20
2017-06-29T00:27:51.674Z,17.20
2017-06-29T00:30:20.172Z,17.10
2017-06-29T00:32:48.674Z,17.10
2017-06-29T00:35:17.219Z,17.30
2017-06-29T00:37:45.706Z,17.30
2017-06-29T00:40:14.276Z,17.20
2017-06-29T00:42:42.891Z,17.40
2017-06-29T00:45:11.606Z,17.40
2017-06-29T00:47:40.094Z,17.30
2017-06-29T00:50:08.601Z,17.30
2017-06-29T00:52:37.092Z,17.30
2017-06-29T00:55:05.549Z,17.20
2017-06-29T00:57:34.093Z,17.10
2017-06-29T01:00:02.594Z,17.00
2017-06-29T01:02:31.086Z,17.00
2017-06-29T01:05:00.429Z,16.90
2017-06-29T01:07:28.943Z,16.90
2017-06-29T01:09:57.579Z,16.90
2017-06-29T01:12:26.810Z,16.80
2017-06-29T01:14:55.417Z,16.80
2017-06-29T01:17:23.906Z,16.80
2017-06-29T01:19:53.156Z,16.90
2017-06-29T01:22:21.651Z,16.90
2017-06-29T01:24:50.148Z,17.00
2017-06-29T01:27:18.654Z,17.00
2017-06-29T01:29:47.304Z,17.00
2017-06-29T01:32:15.964Z,17.00
2017-06-29T01:34:45.259Z,17.00
2017-06-29T01:37:14.591Z,17.10
2017-06-29T01:39:43.117Z,17.00
2017-06-29T01:42:11.655Z,17.10
2017-06-29T01:44:40.348Z,17.20
2017-06-29T01:47:08.838Z,17.20
2017-06-29T01:49:37.349Z,17.20
2017-06-29T01:52:05.901Z,17.30
2017-06-29T01:54:34.479Z,17.30
2017-06-29T01:57:03.062Z,17.30
2017-06-29T01:59:31.773Z,17.50
2017-06-29T02:02:00.437Z,17.40
2017-06-29T02:04:28.933Z,17.30
2017-06-29T02:06:57.609Z,17.30
2017-06-29T02:09:26.130Z,17.20
2017-06-29T02:11:54.719Z,17.30
2017-06-29T02:14:23.262Z,17.30
2017-06-29T02:16:51.825Z,17.30
2017-06-29T02:19:21.122Z,17.30
2017-06-29T02:21:50.338Z,17.30
2017-06-29T02:24:18.825Z,17.30
2017-06-29T02:26:47.314Z,17.30
2017-06-29T02:29:15.933Z,17.30
2017-06-29T02:31:44.458Z,17.30
2017-06-29T02:34:13.729Z,17.20
2017-06-29T02:36:42.213Z,17.10
2017-06-29T02:39:10.795Z,17.10
2017-06-29T02:41:39.258Z,17.10
2017-06-29T02:44:07.738Z,17.10
2017-06-29T02:46:36.219Z,17.00
2017-06-29T02:49:04.705Z,17.00
2017-06-29T02:51:33.261Z,17.00
2017-06-29T02:54:01.725Z,17.00
2017-06-29T02:56:30.204Z,17.00
2017-06-29T02:58:58.850Z,17.00
2017-06-29T03:01:27.597Z,16.90
2017-06-29T03:03:56.097Z,16.90
2017-06-29T03:06:24.596Z,17.00
2017-06-29T03:08:53.172Z,17.00
2017-06-29T03:11:21.698Z,16.90
2017-06-29T03:13:50.172Z,16.90
2017-06-29T03:16:18.668Z,16.80
2017-06-29T03:18:47.178Z,16.80
2017-06-29T03:21:15.696Z,16.80
2017-06-29T03:23:44.201Z,16.70
2017-06-29T03:26:12.725Z,16.70
2017-06-29T03:28:41.417Z,16.70
2017-06-29T03:31:10.048Z,16.70
2017-06-29T03:33:38.549Z,16.70
2017-06-29T03:36:07.268Z,16.70
2017-06-29T03:38:35.902Z,16.60
2017-06-29T03:41:04.402Z,16.70
2017-06-29T03:43:33.026Z,16.70
2017-06-29T03:46:01.530Z,16.60
2017-06-29T03:48:30.134Z,16.60
2017-06-29T03:50:58.776Z,16.50
2017-06-29T03:53:27.254Z,16.50
2017-06-29T03:55:55.737Z,16.50
2017-06-29T03:58:24.231Z,16.50
2017-06-29T04:00:52.713Z,16.50
2017-06-29T04:03:21.209Z,16.60
2017-06-29T04:05:49.764Z,16.60
2017-06-29T04:08:18.548Z,16.60
2017-06-29T04:10:47.029Z,16.60
2017-06-29T04:13:15.731Z,16.60
2017-06-29T04:15:44.237Z,16.60
2017-06-29T04:18:12.929Z,16.70
2017-06-29T04:20:41.526Z,16.70
2017-06-29T04:23:10.021Z,16.80
2017-06-29T04:25:39.221Z,16.90
2017-06-29T04:28:07.705Z,16.80
2017-06-29T04:30:36.218Z,17.00
2017-06-29T04:33:04.706Z,17.00
2017-06-29T04:35:33.222Z,17.10
2017-06-29T04:38:01.746Z,17.20
2017-06-29T04:40:30.966Z,17.30
2017-06-29T04:42:59.495Z,17.20
2017-06-29T04:45:28.091Z,17.30
2017-06-29T04:47:56.631Z,17.40
2017-06-29T04:50:25.126Z,17.50
2017-06-29T04:52:53.625Z,17.40
2017-06-29T04:55:22.112Z,17.50
2017-06-29T04:57:51.590Z,17.60
2017-06-29T05:00:20.063Z,17.80
2017-06-29T05:02:48.649Z,18.00
2017-06-29T05:05:17.172Z,18.10
2017-06-29T05:07:45.699Z,18.20
2017-06-29T05:10:14.700Z,18.40
2017-06-29T05:12:43.300Z,18.50
2017-06-29T05:15:11.775Z,18.70
2017-06-29T05:17:40.290Z,18.50
2017-06-29T05:20:08.806Z,18.50
2017-06-29T05:22:37.342Z,18.40
2017-06-29T05:25:05.835Z,18.40
2017-06-29T05:27:34.594Z,18.50
2017-06-29T05:30:03.298Z,18.50
2017-06-29T05:32:31.809Z,18.60
2017-06-29T05:35:00.340Z,18.80
2017-06-29T05:37:28.997Z,18.80
2017-06-29T05:39:57.631Z,18.80
2017-06-29T05:42:26.172Z,18.60
2017-06-29T05:44:54.596Z,18.60
2017-06-29T05:47:23.134Z,18.80
2017-06-29T05:49:51.861Z,18.90
2017-06-29T05:52:20.421Z,19.00
2017-06-29T05:54:48.884Z,18.90
2017-06-29T05:57:17.650Z,18.90
2017-06-29T05:59:46.169Z,19.10
2017-06-29T06:02:15.384Z,18.90
2017-06-29T06:04:43.856Z,18.90
2017-06-29T06:07:12.672Z,19.00
2017-06-29T06:09:41.203Z,19.00
2017-06-29T06:12:09.740Z,19.10
2017-06-29T06:14:38.239Z,19.10
2017-06-29T06:17:06.687Z,19.20
2017-06-29T06:19:35.180Z,19.20
2017-06-29T06:22:03.652Z,19.40
2017-06-29T06:24:32.177Z,19.50
2017-06-29T06:27:01.860Z,19.50
2017-06-29T06:29:30.341Z,19.60
2017-06-29T06:31:58.964Z,19.50
2017-06-29T06:34:27.525Z,19.40
2017-06-29T06:36:56.069Z,19.20
2017-06-29T06:39:25.369Z,19.50
2017-06-29T06:41:54.597Z,19.40
2017-06-29T06:44:23.243Z,19.30
2017-06-29T06:46:51.895Z,19.30
2017-06-29T06:49:20.597Z,19.30
2017-06-29T06:51:49.170Z,19.30
2017-06-29T06:54:17.685Z,19.20
2017-06-29T06:56:46.968Z,19.30
2017-06-29T06:59:15.542Z,19.20
2017-06-29T07:01:44.045Z,19.40
2017-06-29T07:04:12.521Z,19.60
2017-06-29T07:06:41.093Z,19.60
2017-06-29T07:09:09.675Z,19.80
2017-06-29T07:11:38.212Z,19.80
2017-06-29T07:14:06.720Z,19.70
2017-06-29T07:16:35.197Z,19.70
2017-06-29T07:19:03.901Z,19.80
2017-06-29T07:21:32.465Z,20.00
2017-06-29T07:24:01.085Z,20.20
2017-06-29T07:26:29.723Z,20.20
2017-06-29T07:29:00.565Z,20.40
2017-06-29T07:31:29.075Z,20.60
2017-06-29T07:34:01.098Z,20.90
2017-06-29T07:36:29.744Z,21.10
2017-06-29T07:38:58.949Z,21.30
2017-06-29T07:41:27.569Z,20.90
2017-06-29T07:43:57.544Z,21.00
2017-06-29T07:46:26.098Z,20.90
2017-06-29T07:48:54.627Z,21.10
2017-06-29T07:51:23.255Z,21.30
2017-06-29T07:53:51.803Z,21.40
2017-06-29T07:56:20.541Z,21.40
2017-06-29T07:58:49.533Z,21.40
2017-06-29T08:01:18.215Z,21.30
2017-06-29T08:03:46.733Z,21.50
2017-06-29T08:06:15.545Z,21.70
2017-06-29T08:08:44.091Z,22.00
2017-06-29T08:11:12.620Z,21.80
2017-06-29T08:13:41.109Z,21.60
2017-06-29T08:16:09.612Z,21.70
2017-06-29T08:18:38.261Z,21.70
2017-06-29T08:21:06.786Z,21.60
2017-06-29T08:23:35.380Z,21.80
2017-06-29T08:26:03.964Z,22.30
2017-06-29T08:28:32.541Z,22.90
2017-06-29T08:31:00.516Z,23.10
2017-06-29T08:33:29.029Z,23.30
2017-06-29T08:35:57.604Z,24.00
2017-06-29T08:38:26.178Z,24.40
2017-06-29T08:40:54.745Z,24.80
2017-06-29T08:43:23.212Z,25.40
2017-06-29T08:45:51.680Z,25.80
2017-06-29T08:48:20.243Z,25.60
2017-06-29T08:50:48.769Z,25.20
2017-06-29T08:53:17.254Z,25.10
2017-06-29T08:55:45.775Z,25.00
2017-06-29T08:58:14.369Z,24.60
2017-06-29T09:00:42.906Z,24.40
2017-06-29T09:03:11.571Z,24.60
2017-06-29T09:05:40.182Z,25.00
2017-06-29T09:08:08.644Z,25.10
2017-06-29T09:10:37.345Z,24.90
2017-06-29T09:13:05.841Z,24.20
2017-06-29T09:15:34.328Z,23.80
2017-06-29T09:18:07.401Z,23.80
2017-06-29T09:20:36.152Z,24.00
2017-06-29T09:23:04.746Z,24.00
2017-06-29T09:25:34.150Z,24.00
2017-06-29T09:28:02.600Z,24.00
2017-06-29T09:30:31.126Z,23.90
2017-06-29T09:32:59.640Z,23.70
2017-06-29T09:35:28.105Z,23.60
2017-06-29T09:37:57.105Z,23.30
2017-06-29T09:40:25.606Z,23.30
2017-06-29T09:42:54.056Z,23.10
2017-06-29T09:45:22.562Z,23.10
2017-06-29T09:47:51.263Z,22.90
2017-06-29T09:50:19.939Z,23.10
2017-06-29T09:52:48.609Z,23.20
2017-06-29T09:55:17.197Z,23.30
2017-06-29T09:57:45.677Z,23.30
2017-06-29T10:00:14.180Z,23.10
2017-06-29T10:02:42.777Z,23.20
2017-06-29T10:05:11.400Z,23.60
2017-06-29T10:07:40.682Z,25.00
2017-06-29T10:10:09.415Z,24.90
2017-06-29T10:12:38.210Z,25.80
2017-06-29T10:15:06.867Z,26.00
2017-06-29T10:17:35.345Z,26.20
2017-06-29T10:20:03.843Z,26.50
2017-06-29T10:22:32.349Z,26.90
2017-06-29T10:25:00.821Z,27.40
2017-06-29T10:27:29.691Z,27.70
2017-06-29T10:29:58.232Z,27.10
2017-06-29T10:32:26.788Z,27.30
2017-06-29T10:34:55.328Z,27.10
2017-06-29T10:37:24.578Z,26.60
2017-06-29T10:39:53.246Z,26.60
2017-06-29T10:42:22.134Z,26.60
2017-06-29T10:44:51.750Z,26.60
2017-06-29T10:47:20.609Z,26.80
2017-06-29T10:49:49.819Z,27.40
2017-06-29T10:52:18.320Z,27.30
2017-06-29T10:54:46.154Z,28.10
2017-06-29T10:57:17.118Z,28.90
2017-06-29T10:59:46.013Z,29.20
2017-06-29T11:02:14.516Z,28.70
2017-06-29T11:04:42.980Z,28.20
2017-06-29T11:07:11.563Z,27.90
2017-06-29T11:09:40.105Z,27.60
2017-06-29T11:12:08.578Z,27.40
2017-06-29T11:14:37.012Z,26.80
2017-06-29T11:17:05.531Z,26.90
2017-06-29T11:19:34.280Z,27.40
2017-06-29T11:22:03.017Z,27.30
2017-06-29T11:24:31.732Z,27.80
2017-06-29T11:27:01.088Z,27.90
2017-06-29T11:29:29.569Z,27.80
2017-06-29T11:31:58.317Z,27.00
2017-06-29T11:34:27.311Z,26.90
2017-06-29T11:36:55.769Z,26.40
2017-06-29T11:39:25.038Z,26.30
2017-06-29T11:41:53.735Z,26.20
2017-06-29T11:44:22.257Z,26.20
2017-06-29T11:46:50.751Z,26.20
2017-06-29T11:49:19.418Z,26.40
2017-06-29T11:51:47.964Z,26.80
2017-06-29T11:54:16.905Z,26.90
2017-06-29T11:56:45.419Z,26.60
2017-06-29T11:59:13.931Z,26.20
2017-06-29T12:01:42.509Z,26.00
2017-06-29T12:04:11.029Z,26.00
2017-06-29T12:06:40.292Z,25.90
2017-06-29T12:09:08.804Z,25.90
2017-06-29T12:11:36.720Z,26.00
2017-06-29T12:14:15.154Z,25.80
2017-06-29T12:16:44.013Z,26.00
2017-06-29T12:19:12.622Z,26.50
2017-06-29T12:21:41.157Z,26.90
2017-06-29T12:24:09.841Z,27.50
2017-06-29T12:26:38.473Z,28.10
2017-06-29T12:29:07.040Z,28.10
2017-06-29T12:31:34.915Z,28.40
2017-06-29T12:34:03.097Z,28.70
2017-06-29T12:36:32.520Z,28.40
2017-06-29T12:39:00.397Z,28.60
2017-06-29T12:41:28.316Z,28.40
2017-06-29T12:43:56.803Z,27.60
2017-06-29T12:46:26.782Z,27.30
2017-06-29T12:48:55.308Z,27.00
2017-06-29T12:51:23.640Z,26.40
2017-06-29T12:53:52.910Z,26.10
2017-06-29T12:56:21.397Z,26.10
2017-06-29T12:58:50.132Z,25.90
2017-06-29T13:01:18.626Z,25.80
2017-06-29T13:03:47.140Z,25.80
2017-06-29T13:06:15.849Z,26.10
2017-06-29T13:08:44.486Z,26.90
2017-06-29T13:11:13.013Z,27.80
2017-06-29T13:13:40.877Z,27.90
2017-06-29T13:16:08.748Z,28.00
2017-06-29T13:18:37.406Z,28.60
2017-06-29T13:30:50.640Z,28.50
2017-06-29T13:33:18.553Z,28.70
2017-06-29T13:35:47.243Z,26.90
2017-06-29T13:38:15.792Z,26.90
2017-06-29T13:40:44.362Z,26.80
2017-06-29T13:43:12.973Z,26.70
2017-06-29T13:54:36.644Z,26.60
2017-06-29T13:57:05.094Z,26.50
2017-06-29T13:59:33.734Z,26.10
2017-06-29T14:02:02.484Z,26.30
2017-06-29T14:14:16.046Z,26.30
2017-06-29T14:16:47.122Z,25.30
2017-06-29T14:19:15.963Z,25.20
2017-06-29T14:25:18.352Z,25.40
2017-06-29T14:27:47.182Z,25.70
2017-06-29T14:30:15.652Z,25.60
2017-06-29T14:32:44.985Z,25.10
2017-06-29T14:35:13.952Z,25.00
2017-06-29T14:46:52.541Z,25.10
2017-06-29T14:49:21.748Z,24.30
2017-06-29T14:51:50.282Z,24.20
2017-06-29T14:54:18.837Z,24.20
2017-06-29T14:56:47.552Z,24.30
2017-06-29T15:09:01.730Z,24.30
2017-06-29T15:11:30.196Z,24.10
2017-06-29T15:13:58.750Z,23.70
2017-06-29T15:16:27.529Z,23.60
2017-06-29T15:18:56.016Z,23.50
2017-06-29T15:21:24.736Z,23.50
2017-06-29T15:23:53.448Z,23.40
2017-06-29T15:26:22.544Z,23.40
2017-06-29T15:28:51.228Z,23.50
2017-06-29T15:31:26.017Z,23.30
2017-06-29T15:43:40.029Z,23.40
2017-06-29T15:46:09.272Z,23.20
2017-06-29T15:48:37.761Z,23.10
2017-06-29T15:51:06.257Z,23.20
2017-06-29T15:53:34.795Z,23.20
2017-06-29T15:56:03.386Z,23.20
2017-06-29T15:58:31.917Z,23.30
2017-06-29T16:01:00.575Z,23.30
2017-06-29T16:03:29.209Z,23.30
2017-06-29T16:05:57.837Z,23.20
2017-06-29T16:08:26.286Z,23.20
2017-06-29T16:10:54.735Z,23.30
2017-06-29T16:13:23.200Z,23.20
2017-06-29T16:15:51.683Z,23.20
2017-06-29T16:28:06.014Z,23.20
2017-06-29T16:40:19.584Z,23.10
2017-06-29T16:42:48.110Z,22.80
2017-06-29T16:45:16.966Z,22.70
2017-06-29T16:47:47.246Z,22.70
2017-06-29T16:50:15.936Z,22.70
2017-06-29T17:02:30.173Z,22.70
2017-06-29T17:04:58.641Z,22.60
2017-06-29T17:07:27.120Z,22.30
2017-06-29T17:09:55.826Z,22.20
2017-06-29T17:12:24.988Z,22.20
2017-06-29T17:14:55.384Z,22.10
2017-06-29T17:17:23.847Z,22.30
2017-06-29T17:19:52.352Z,22.20
2017-06-29T17:22:21.031Z,22.20
2017-06-29T17:24:49.817Z,22.10
2017-06-29T17:37:03.673Z,22.00
2017-06-29T17:39:32.540Z,22.00
2017-06-29T17:42:01.048Z,21.60
2017-06-29T17:57:30.257Z,21.60
2017-06-29T18:12:55.995Z,21.20
2017-06-29T18:25:09.673Z,21.10
2017-06-29T18:27:38.210Z,20.60
2017-06-29T18:30:07.090Z,20.10
2017-06-29T18:32:35.661Z,20.00
2017-06-29T18:35:04.596Z,19.90
2017-06-29T18:37:34.401Z,19.90
2017-06-29T18:40:02.964Z,19.80
2017-06-29T18:42:31.659Z,19.80
2017-06-29T18:45:00.458Z,19.70
2017-06-29T18:47:29.005Z,19.80
2017-06-29T18:49:57.739Z,19.70
2017-06-29T18:52:27.982Z,19.70
2017-06-29T19:06:07.684Z,19.70
2017-06-29T19:08:41.648Z,19.50
2017-06-29T19:11:11.249Z,19.30
2017-06-29T19:13:42.658Z,19.10
2017-06-29T19:16:12.042Z,19.10
2017-06-29T19:18:47.311Z,19.00
2017-06-29T19:31:01.463Z,19.00
2017-06-29T19:33:30.721Z,18.90
2017-06-29T19:35:59.278Z,18.80
